Station Historical Data
Daily Summary for May 21, 2011 Units:  Both    English   Metric
« Previous Day
Next Day »
Daily Weekly Monthly Yearly Custom
  High: Low: Average:
Temperature: 86.3 °F /  30.2 °C 64.8 °F /  18.2 °C 76 °F /  24.4 °C
Dew Point: 71.7 °F /  22.1 °C 58.3 °F /  14.6 °C 64 °F /  17.8 °C
Humidity: 82% 48% 67%
Wind Speed: 17.0mph /  27.4km/h - 4.9mph /  7.9km/h
Wind Gust: 21.0mph /  33.8km/h - -
Wind- - SSE
Pressure: 29.96 in /  1014.4 hPa 29.87 in /  1011.4 hPa -
Precipitation: 0.00 in /  0 mm    
Historical Graphs
 
 
Tabular Data for May 21, 2011
Time Temperature Dew Point Pressure Wind Wind Speed Wind Gust Humidity Rainfall Rate (Hourly) Conditions
00:00 67.8 °F /  19.9 °C 58.8 °F /  14.9 °C 29.92in /  1013.1hPa Calm     73% 0.00in /  0mm
00:01 67.8 °F /  19.9 °C 58.8 °F /  14.9 °C 29.92in /  1013.1hPa Calm     73% 0.00in /  0mm
00:05 68.1 °F /  20.1 °C 58.3 °F /  14.6 °C 29.92in /  1013.1hPa Calm     71% 0.00in /  0mm
00:06 68.1 °F /  20.1 °C 58.3 °F /  14.6 °C 29.92in /  1013.1hPa Calm     71% 0.00in /  0mm
00:11 68.1 °F /  20.1 °C 58.3 °F /  14.6 °C 29.92in /  1013.1hPa Calm     71% 0.00in /  0mm
00:16 68.6 °F /  20.3 °C 58.4 °F /  14.7 °C 29.92in /  1013.1hPa Calm   1.0mph /  1.6km/h 70% 0.00in /  0mm
00:21 68.6 °F /  20.3 °C 58.8 °F /  14.9 °C 29.92in /  1013.1hPa Calm     71% 0.00in /  0mm
00:26 69.2 °F /  20.7 °C 58.6 °F /  14.8 °C 29.92in /  1013.1hPa ESE 2.0mph /  3.2km/h 2.0mph /  3.2km/h 69% 0.00in /  0mm
00:31 69.6 °F /  20.9 °C 58.6 °F /  14.8 °C 29.92in /  1013.1hPa ESE 1.0mph /  1.6km/h 1.0mph /  1.6km/h 68% 0.00in /  0mm
00:32 69.6 °F /  20.9 °C 58.6 °F /  14.8 °C 29.92in /  1013.1hPa Calm   1.0mph /  1.6km/h 68% 0.00in /  0mm
00:36 69.5 °F /  20.8 °C 58.5 °F /  14.7 °C 29.92in /  1013.1hPa Calm   1.0mph /  1.6km/h 68% 0.00in /  0mm
00:37 69.5 °F /  20.8 °C 58.5 °F /  14.7 °C 29.92in /  1013.1hPa Calm   1.0mph /  1.6km/h 68% 0.00in /  0mm
00:42 69.4 °F /  20.8 °C 58.4 °F /  14.7 °C 29.92in /  1013.1hPa East 1.0mph /  1.6km/h 3.0mph /  4.8km/h 68% 0.00in /  0mm
00:47 69.6 °F /  20.9 °C 58.6 °F /  14.8 °C 29.92in /  1013.1hPa East 1.0mph /  1.6km/h 3.0mph /  4.8km/h 68% 0.00in /  0mm
00:52 69.7 °F /  20.9 °C 58.7 °F /  14.8 °C 29.92in /  1013.1hPa East 1.0mph /  1.6km/h 3.0mph /  4.8km/h 68% 0.00in /  0mm
00:53 69.7 °F /  20.9 °C 58.7 °F /  14.8 °C 29.92in /  1013.1hPa ESE 2.0mph /  3.2km/h 3.0mph /  4.8km/h 68% 0.00in /  0mm
00:55 69.7 °F /  20.9 °C 58.7 °F /  14.8 °C 29.92in /  1013.1hPa ESE 1.0mph /  1.6km/h 3.0mph /  4.8km/h 68% 0.00in /  0mm
00:58 69.8 °F /  21 °C 58.4 °F /  14.7 °C 29.92in /  1013.1hPa ESE 3.0mph /  4.8km/h 4.0mph /  6.4km/h 67% 0.00in /  0mm
00:59 69.9 °F /  21.1 °C 58.5 °F /  14.7 °C 29.92in /  1013.1hPa ESE 3.0mph /  4.8km/h 4.0mph /  6.4km/h 67% 0.00in /  0mm
01:04 69.9 °F /  21.1 °C 58.5 °F /  14.7 °C 29.92in /  1013.1hPa ESE 2.0mph /  3.2km/h 3.0mph /  4.8km/h 67% 0.00in /  0mm
01:09 69.7 °F /  20.9 °C 58.7 °F /  14.8 °C 29.93in /  1013.4hPa ESE 2.0mph /  3.2km/h 4.0mph /  6.4km/h 68% 0.00in /  0mm
01:14 69.6 °F /  20.9 °C 59.0 °F /  15 °C 29.93in /  1013.4hPa SE 3.0mph /  4.8km/h 4.0mph /  6.4km/h 69% 0.00in /  0mm
01:19 69.6 °F /  20.9 °C 59.0 °F /  15 °C 29.93in /  1013.4hPa ESE 3.0mph /  4.8km/h 4.0mph /  6.4km/h 69% 0.00in /  0mm
01:24 69.5 °F /  20.8 °C 58.9 °F /  14.9 °C 29.93in /  1013.4hPa ESE 4.0mph /  6.4km/h 4.0mph /  6.4km/h 69% 0.00in /  0mm
01:29 69.3 °F /  20.7 °C 58.7 °F /  14.8 °C 29.93in /  1013.4hPa ESE 4.0mph /  6.4km/h 4.0mph /  6.4km/h 69% 0.00in /  0mm
01:30 69.3 °F /  20.7 °C 59.1 °F /  15.1 °C 29.93in /  1013.4hPa SE 2.0mph /  3.2km/h 4.0mph /  6.4km/h 70% 0.00in /  0mm
01:34 69.3 °F /  20.7 °C 59.1 °F /  15.1 °C 29.93in /  1013.4hPa SE 4.0mph /  6.4km/h 4.0mph /  6.4km/h 70% 0.00in /  0mm
01:35 69.3 °F /  20.7 °C 58.7 °F /  14.8 °C 29.93in /  1013.4hPa ESE 3.0mph /  4.8km/h 4.0mph /  6.4km/h 69% 0.00in /  0mm
01:36 69.3 °F /  20.7 °C 58.7 °F /  14.8 °C 29.93in /  1013.4hPa ESE 2.0mph /  3.2km/h 4.0mph /  6.4km/h 69% 0.00in /  0mm
01:39 69.2 °F /  20.7 °C 58.6 °F /  14.8 °C 29.93in /  1013.4hPa ESE 3.0mph /  4.8km/h 3.0mph /  4.8km/h 69% 0.00in /  0mm
01:44 69.3 °F /  20.7 °C 58.7 °F /  14.8 °C 29.93in /  1013.4hPa SE 1.0mph /  1.6km/h 3.0mph /  4.8km/h 69% 0.00in /  0mm
01:49 69.4 °F /  20.8 °C 58.8 °F /  14.9 °C 29.93in /  1013.4hPa SE 2.0mph /  3.2km/h 3.0mph /  4.8km/h 69% 0.00in /  0mm
01:54 69.6 °F /  20.9 °C 59.0 °F /  15 °C 29.93in /  1013.4hPa ESE 2.0mph /  3.2km/h 3.0mph /  4.8km/h 69% 0.00in /  0mm
01:55 69.6 °F /  20.9 °C 59.0 °F /  15 °C 29.93in /  1013.4hPa ESE 3.0mph /  4.8km/h 3.0mph /  4.8km/h 69% 0.00in /  0mm
02:00 69.6 °F /  20.9 °C 59.0 °F /  15 °C 29.93in /  1013.4hPa SE 2.0mph /  3.2km/h 3.0mph /  4.8km/h 69% 0.00in /  0mm
02:05 69.7 °F /  20.9 °C 59.1 °F /  15.1 °C 29.93in /  1013.4hPa SE 2.0mph /  3.2km/h 2.0mph /  3.2km/h 69% 0.00in /  0mm
02:10 69.7 °F /  20.9 °C 59.1 °F /  15.1 °C 29.93in /  1013.4hPa SE 2.0mph /  3.2km/h 3.0mph /  4.8km/h 69% 0.00in /  0mm
02:15 69.5 °F /  20.8 °C 58.9 °F /  14.9 °C 29.93in /  1013.4hPa SE 2.0mph /  3.2km/h 4.0mph /  6.4km/h 69% 0.00in /  0mm
02:20 69.3 °F /  20.7 °C 58.7 °F /  14.8 °C 29.94in /  1013.8hPa South 3.0mph /  4.8km/h 4.0mph /  6.4km/h 69% 0.00in /  0mm
02:25 69.2 °F /  20.7 °C 58.6 °F /  14.8 °C 29.93in /  1013.4hPa SW 1.0mph /  1.6km/h 3.0mph /  4.8km/h 69% 0.00in /  0mm
02:31 69.1 °F /  20.6 °C 58.9 °F /  14.9 °C 29.93in /  1013.4hPa South 4.0mph /  6.4km/h 4.0mph /  6.4km/h 70% 0.00in /  0mm
02:32 69.0 °F /  20.6 °C 58.4 °F /  14.7 °C 29.93in /  1013.4hPa SSW 1.0mph /  1.6km/h 4.0mph /  6.4km/h 69% 0.00in /  0mm
02:35 69.0 °F /  20.6 °C 58.8 °F /  14.9 °C 29.93in /  1013.4hPa SSW 2.0mph /  3.2km/h 3.0mph /  4.8km/h 70% 0.00in /  0mm
02:38 68.9 °F /  20.5 °C 58.7 °F /  14.8 °C 29.93in /  1013.4hPa SSW 1.0mph /  1.6km/h 2.0mph /  3.2km/h 70% 0.00in /  0mm
02:43 68.7 °F /  20.4 °C 58.5 °F /  14.7 °C 29.93in /  1013.4hPa SSW 1.0mph /  1.6km/h 2.0mph /  3.2km/h 70% 0.00in /  0mm
02:48 68.5 °F /  20.3 °C 58.7 °F /  14.8 °C 29.93in /  1013.4hPa SSE 1.0mph /  1.6km/h 2.0mph /  3.2km/h 71% 0.00in /  0mm
02:53 68.3 °F /  20.2 °C 58.5 °F /  14.7 °C 29.92in /  1013.1hPa SE 1.0mph /  1.6km/h 1.0mph /  1.6km/h 71% 0.00in /  0mm
02:54 68.2 °F /  20.1 °C 58.8 °F /  14.9 °C 29.93in /  1013.4hPa SE 1.0mph /  1.6km/h 1.0mph /  1.6km/h 72% 0.00in /  0mm
02:58 68.0 °F /  20 °C 58.7 °F /  14.8 °C 29.92in /  1013.1hPa Calm   1.0mph /  1.6km/h 72% 0.00in /  0mm
02:59 67.9 °F /  19.9 °C 58.5 °F /  14.7 °C 29.92in /  1013.1hPa SE 1.0mph /  1.6km/h 1.0mph /  1.6km/h 72% 0.00in /  0mm
03:04 68.1 °F /  20.1 °C 58.7 °F /  14.8 °C 29.92in /  1013.1hPa SE 1.0mph /  1.6km/h 3.0mph /  4.8km/h 72% 0.00in /  0mm
03:09 68.3 °F /  20.2 °C 58.9 °F /  14.9 °C 29.92in /  1013.1hPa SE 2.0mph /  3.2km/h 2.0mph /  3.2km/h 72% 0.00in /  0mm
03:14 68.6 °F /  20.3 °C 58.8 °F /  14.9 °C 29.92in /  1013.1hPa ESE 5.0mph /  8km/h 6.0mph /  9.7km/h 71% 0.00in /  0mm
03:19 68.7 °F /  20.4 °C 59.3 °F /  15.2 °C 29.92in /  1013.1hPa ESE 4.0mph /  6.4km/h 6.0mph /  9.7km/h 72% 0.00in /  0mm
03:24 68.7 °F /  20.4 °C 58.9 °F /  14.9 °C 29.92in /  1013.1hPa SE 2.0mph /  3.2km/h 5.0mph /  8km/h 71% 0.00in /  0mm
03:25 68.8 °F /  20.4 °C 59.0 °F /  15 °C 29.92in /  1013.1hPa ESE 2.0mph /  3.2km/h 5.0mph /  8km/h 71% 0.00in /  0mm
03:30 69.1 °F /  20.6 °C 58.9 °F /  14.9 °C 29.92in /  1013.1hPa SE 5.0mph /  8km/h 8.0mph /  12.9km/h 70% 0.00in /  0mm
03:32 69.2 °F /  20.7 °C 58.6 °F /  14.8 °C 29.92in /  1013.1hPa ESE 4.0mph /  6.4km/h 8.0mph /  12.9km/h 69% 0.00in /  0mm
03:36 69.6 °F /  20.9 °C 59.0 °F /  15 °C 29.92in /  1013.1hPa SSE 5.0mph /  8km/h 6.0mph /  9.7km/h 69% 0.00in /  0mm
03:41 69.8 °F /  21 °C 59.2 °F /  15.1 °C 29.92in /  1013.1hPa ESE 5.0mph /  8km/h 7.0mph /  11.3km/h 69% 0.00in /  0mm
03:46 69.9 °F /  21.1 °C 59.3 °F /  15.2 °C 29.92in /  1013.1hPa SE 5.0mph /  8km/h 7.0mph /  11.3km/h 69% 0.00in /  0mm
03:51 69.9 °F /  21.1 °C 59.3 °F /  15.2 °C 29.92in /  1013.1hPa SE 4.0mph /  6.4km/h 7.0mph /  11.3km/h 69% 0.00in /  0mm
03:52 69.9 °F /  21.1 °C 59.3 °F /  15.2 °C 29.92in /  1013.1hPa SE 6.0mph /  9.7km/h 7.0mph /  11.3km/h 69% 0.00in /  0mm
03:53 69.9 °F /  21.1 °C 59.3 °F /  15.2 °C 29.92in /  1013.1hPa ESE 7.0mph /  11.3km/h 7.0mph /  11.3km/h 69% 0.00in /  0mm
03:57 70.0 °F /  21.1 °C 59.4 °F /  15.2 °C 29.92in /  1013.1hPa SE 4.0mph /  6.4km/h 7.0mph /  11.3km/h 69% 0.00in /  0mm
03:59 69.9 °F /  21.1 °C 59.3 °F /  15.2 °C 29.92in /  1013.1hPa SE 5.0mph /  8km/h 7.0mph /  11.3km/h 69% 0.00in /  0mm
04:02 69.9 °F /  21.1 °C 59.3 °F /  15.2 °C 29.92in /  1013.1hPa SE 5.0mph /  8km/h 7.0mph /  11.3km/h 69% 0.00in /  0mm
04:07 69.8 °F /  21 °C 59.2 °F /  15.1 °C 29.92in /  1013.1hPa SE 4.0mph /  6.4km/h 6.0mph /  9.7km/h 69% 0.00in /  0mm
04:12 69.1 °F /  20.6 °C 59.7 °F /  15.4 °C 29.92in /  1013.1hPa ESE 3.0mph /  4.8km/h 5.0mph /  8km/h 72% 0.00in /  0mm
04:17 68.6 °F /  20.3 °C 59.6 °F /  15.3 °C 29.92in /  1013.1hPa SE 3.0mph /  4.8km/h 5.0mph /  8km/h 73% 0.00in /  0mm
04:22 68.6 °F /  20.3 °C 59.6 °F /  15.3 °C 29.92in /  1013.1hPa ESE 3.0mph /  4.8km/h 6.0mph /  9.7km/h 73% 0.00in /  0mm
04:27 68.4 °F /  20.2 °C 59.4 °F /  15.2 °C 29.92in /  1013.1hPa ESE 4.0mph /  6.4km/h 5.0mph /  8km/h 73% 0.00in /  0mm
04:30 68.3 °F /  20.2 °C 59.3 °F /  15.2 °C 29.92in /  1013.1hPa ESE 5.0mph /  8km/h 5.0mph /  8km/h 73% 0.00in /  0mm
04:32 68.2 °F /  20.1 °C 59.2 °F /  15.1 °C 29.92in /  1013.1hPa ESE 4.0mph /  6.4km/h 6.0mph /  9.7km/h 73% 0.00in /  0mm
04:33 68.2 °F /  20.1 °C 59.2 °F /  15.1 °C 29.92in /  1013.1hPa ESE 3.0mph /  4.8km/h 6.0mph /  9.7km/h 73% 0.00in /  0mm
04:35 68.0 °F /  20 °C 59.4 °F /  15.2 °C 29.92in /  1013.1hPa ESE 4.0mph /  6.4km/h 6.0mph /  9.7km/h 74% 0.00in /  0mm
04:36 68.0 °F /  20 °C 59.4 °F /  15.2 °C 29.92in /  1013.1hPa ESE 4.0mph /  6.4km/h 5.0mph /  8km/h 74% 0.00in /  0mm
04:38 67.9 °F /  19.9 °C 59.3 °F /  15.2 °C 29.92in /  1013.1hPa ESE 4.0mph /  6.4km/h 5.0mph /  8km/h 74% 0.00in /  0mm
04:43 67.7 °F /  19.8 °C 59.1 °F /  15.1 °C 29.92in /  1013.1hPa ESE 4.0mph /  6.4km/h 4.0mph /  6.4km/h 74% 0.00in /  0mm
04:48 67.6 °F /  19.8 °C 59.4 °F /  15.2 °C 29.92in /  1013.1hPa ESE 2.0mph /  3.2km/h 3.0mph /  4.8km/h 75% 0.00in /  0mm
04:53 67.4 °F /  19.7 °C 59.6 °F /  15.3 °C 29.92in /  1013.1hPa ESE 3.0mph /  4.8km/h 4.0mph /  6.4km/h 76% 0.00in /  0mm
04:54 67.4 °F /  19.7 °C 59.6 °F /  15.3 °C 29.92in /  1013.1hPa ESE 3.0mph /  4.8km/h 4.0mph /  6.4km/h 76% 0.00in /  0mm
04:58 67.2 °F /  19.6 °C 59.4 °F /  15.2 °C 29.92in /  1013.1hPa ESE 3.0mph /  4.8km/h 5.0mph /  8km/h 76% 0.00in /  0mm
05:03 66.9 °F /  19.4 °C 59.5 °F /  15.3 °C 29.92in /  1013.1hPa East 3.0mph /  4.8km/h 4.0mph /  6.4km/h 77% 0.00in /  0mm
05:08 66.9 °F /  19.4 °C 59.5 °F /  15.3 °C 29.92in /  1013.1hPa ESE 3.0mph /  4.8km/h 4.0mph /  6.4km/h 77% 0.00in /  0mm
05:13 66.9 °F /  19.4 °C 59.5 °F /  15.3 °C 29.91in /  1012.8hPa ESE 3.0mph /  4.8km/h 4.0mph /  6.4km/h 77% 0.00in /  0mm
05:18 66.8 °F /  19.3 °C 59.4 °F /  15.2 °C 29.91in /  1012.8hPa East 5.0mph /  8km/h 5.0mph /  8km/h 77% 0.00in /  0mm
05:23 66.7 °F /  19.3 °C 59.3 °F /  15.2 °C 29.91in /  1012.8hPa ESE 6.0mph /  9.7km/h 6.0mph /  9.7km/h 77% 0.00in /  0mm
05:28 66.8 °F /  19.3 °C 59.4 °F /  15.2 °C 29.91in /  1012.8hPa ESE 5.0mph /  8km/h 6.0mph /  9.7km/h 77% 0.00in /  0mm
05:29 66.8 °F /  19.3 °C 59.4 °F /  15.2 °C 29.91in /  1012.8hPa ESE 4.0mph /  6.4km/h 6.0mph /  9.7km/h 77% 0.00in /  0mm
05:31 66.9 °F /  19.4 °C 59.5 °F /  15.3 °C 29.91in /  1012.8hPa ESE 3.0mph /  4.8km/h 6.0mph /  9.7km/h 77% 0.00in /  0mm
05:33 66.9 °F /  19.4 °C 59.1 °F /  15.1 °C 29.91in /  1012.8hPa ESE 5.0mph /  8km/h 6.0mph /  9.7km/h 76% 0.00in /  0mm
05:34 67.0 °F /  19.4 °C 59.2 °F /  15.1 °C 29.91in /  1012.8hPa ESE 4.0mph /  6.4km/h 6.0mph /  9.7km/h 76% 0.00in /  0mm
05:36 67.1 °F /  19.5 °C 59.3 °F /  15.2 °C 29.90in /  1012.4hPa ESE 5.0mph /  8km/h 6.0mph /  9.7km/h 76% 0.00in /  0mm
05:38 67.1 °F /  19.5 °C 59.3 °F /  15.2 °C 29.90in /  1012.4hPa ESE 4.0mph /  6.4km/h 6.0mph /  9.7km/h 76% 0.00in /  0mm
05:43 66.7 °F /  19.3 °C 59.3 °F /  15.2 °C 29.91in /  1012.8hPa ESE 4.0mph /  6.4km/h 4.0mph /  6.4km/h 77% 0.00in /  0mm
05:48 66.5 °F /  19.2 °C 59.1 °F /  15.1 °C 29.91in /  1012.8hPa ESE 2.0mph /  3.2km/h 5.0mph /  8km/h 77% 0.00in /  0mm
05:54 66.3 °F /  19.1 °C 59.2 °F /  15.1 °C 29.91in /  1012.8hPa ESE 3.0mph /  4.8km/h 5.0mph /  8km/h 78% 0.00in /  0mm
05:59 65.9 °F /  18.8 °C 59.2 °F /  15.1 °C 29.92in /  1013.1hPa ESE 2.0mph /  3.2km/h 3.0mph /  4.8km/h 79% 0.00in /  0mm
06:00 65.8 °F /  18.8 °C 59.1 °F /  15.1 °C 29.92in /  1013.1hPa ESE 3.0mph /  4.8km/h 3.0mph /  4.8km/h 79% 0.00in /  0mm
06:04 65.4 °F /  18.6 °C 59.1 °F /  15.1 °C 29.92in /  1013.1hPa ESE 3.0mph /  4.8km/h 4.0mph /  6.4km/h 80% 0.00in /  0mm
06:09 65.2 °F /  18.4 °C 59.2 °F /  15.1 °C 29.92in /  1013.1hPa East 2.0mph /  3.2km/h 4.0mph /  6.4km/h 81% 0.00in /  0mm
06:14 64.9 °F /  18.3 °C 59.3 °F /  15.2 °C 29.92in /  1013.1hPa ESE 2.0mph /  3.2km/h 2.0mph /  3.2km/h 82% 0.00in /  0mm
06:19 64.8 °F /  18.2 °C 59.2 °F /  15.1 °C 29.92in /  1013.1hPa ESE 2.0mph /  3.2km/h 3.0mph /  4.8km/h 82% 0.00in /  0mm
06:24 64.9 °F /  18.3 °C 59.3 °F /  15.2 °C 29.92in /  1013.1hPa ESE 2.0mph /  3.2km/h 3.0mph /  4.8km/h 82% 0.00in /  0mm
06:29 65.0 °F /  18.3 °C 59.4 °F /  15.2 °C 29.92in /  1013.1hPa ESE 3.0mph /  4.8km/h 4.0mph /  6.4km/h 82% 0.00in /  0mm
06:30 65.0 °F /  18.3 °C 59.4 °F /  15.2 °C 29.92in /  1013.1hPa ESE 3.0mph /  4.8km/h 4.0mph /  6.4km/h 82% 0.00in /  0mm
06:35 65.4 °F /  18.6 °C 59.4 °F /  15.2 °C 29.92in /  1013.1hPa East 3.0mph /  4.8km/h 4.0mph /  6.4km/h 81% 0.00in /  0mm
06:36 65.4 °F /  18.6 °C 59.4 °F /  15.2 °C 29.92in /  1013.1hPa ESE 5.0mph /  8km/h 5.0mph /  8km/h 81% 0.00in /  0mm
06:41 65.8 °F /  18.8 °C 59.5 °F /  15.3 °C 29.93in /  1013.4hPa ESE 4.0mph /  6.4km/h 5.0mph /  8km/h 80% 0.00in /  0mm
06:46 66.1 °F /  18.9 °C 59.8 °F /  15.4 °C 29.92in /  1013.1hPa ESE 7.0mph /  11.3km/h 7.0mph /  11.3km/h 80% 0.00in /  0mm
06:51 66.2 °F /  19 °C 59.5 °F /  15.3 °C 29.92in /  1013.1hPa SE 2.0mph /  3.2km/h 6.0mph /  9.7km/h 79% 0.00in /  0mm
06:56 66.2 °F /  19 °C 59.5 °F /  15.3 °C 29.92in /  1013.1hPa SE 2.0mph /  3.2km/h 5.0mph /  8km/h 79% 0.00in /  0mm
06:57 66.2 °F /  19 °C 59.5 °F /  15.3 °C 29.93in /  1013.4hPa ESE 2.0mph /  3.2km/h 5.0mph /  8km/h 79% 0.00in /  0mm
07:02 66.3 °F /  19.1 °C 59.2 °F /  15.1 °C 29.93in /  1013.4hPa ESE 3.0mph /  4.8km/h 4.0mph /  6.4km/h 78% 0.00in /  0mm
07:07 66.4 °F /  19.1 °C 59.7 °F /  15.4 °C 29.93in /  1013.4hPa ESE 3.0mph /  4.8km/h 4.0mph /  6.4km/h 79% 0.00in /  0mm
07:12 66.4 °F /  19.1 °C 59.3 °F /  15.2 °C 29.94in /  1013.8hPa SE 4.0mph /  6.4km/h 4.0mph /  6.4km/h 78% 0.00in /  0mm
07:17 66.7 °F /  19.3 °C 59.3 °F /  15.2 °C 29.94in /  1013.8hPa ESE 3.0mph /  4.8km/h 4.0mph /  6.4km/h 77% 0.00in /  0mm
07:19 66.8 °F /  19.3 °C 59.7 °F /  15.4 °C 29.94in /  1013.8hPa ESE 3.0mph /  4.8km/h 4.0mph /  6.4km/h 78% 0.00in /  0mm
07:22 66.9 °F /  19.4 °C 59.8 °F /  15.4 °C 29.94in /  1013.8hPa ESE 3.0mph /  4.8km/h 4.0mph /  6.4km/h 78% 0.00in /  0mm
07:27 66.9 °F /  19.4 °C 59.5 °F /  15.3 °C 29.94in /  1013.8hPa ESE 4.0mph /  6.4km/h 5.0mph /  8km/h 77% 0.00in /  0mm
07:29 67.0 °F /  19.4 °C 59.9 °F /  15.5 °C 29.94in /  1013.8hPa ESE 4.0mph /  6.4km/h 5.0mph /  8km/h 78% 0.00in /  0mm
07:32 67.1 °F /  19.5 °C 59.7 °F /  15.4 °C 29.94in /  1013.8hPa ESE 4.0mph /  6.4km/h 6.0mph /  9.7km/h 77% 0.00in /  0mm
07:33 67.0 °F /  19.4 °C 59.6 °F /  15.3 °C 29.94in /  1013.8hPa SE 3.0mph /  4.8km/h 6.0mph /  9.7km/h 77% 0.00in /  0mm
07:37 67.1 °F /  19.5 °C 59.7 °F /  15.4 °C 29.94in /  1013.8hPa ESE 4.0mph /  6.4km/h 6.0mph /  9.7km/h 77% 0.00in /  0mm
07:42 67.3 °F /  19.6 °C 59.5 °F /  15.3 °C 29.94in /  1013.8hPa ESE 4.0mph /  6.4km/h 7.0mph /  11.3km/h 76% 0.00in /  0mm
07:47 67.5 °F /  19.7 °C 59.7 °F /  15.4 °C 29.94in /  1013.8hPa SE 5.0mph /  8km/h 5.0mph /  8km/h 76% 0.00in /  0mm
07:52 67.8 °F /  19.9 °C 59.6 °F /  15.3 °C 29.94in /  1013.8hPa SE 5.0mph /  8km/h 5.0mph /  8km/h 75% 0.00in /  0mm
07:53 67.9 °F /  19.9 °C 59.7 °F /  15.4 °C 29.94in /  1013.8hPa East 4.0mph /  6.4km/h 6.0mph /  9.7km/h 75% 0.00in /  0mm
07:57 68.0 °F /  20 °C 59.4 °F /  15.2 °C 29.94in /  1013.8hPa SE 4.0mph /  6.4km/h 6.0mph /  9.7km/h 74% 0.00in /  0mm
07:58 68.0 °F /  20 °C 59.8 °F /  15.4 °C 29.95in /  1014.1hPa SE 5.0mph /  8km/h 6.0mph /  9.7km/h 75% 0.00in /  0mm
08:03 67.8 °F /  19.9 °C 59.6 °F /  15.3 °C 29.94in /  1013.8hPa SE 6.0mph /  9.7km/h 8.0mph /  12.9km/h 75% 0.00in /  0mm
08:08 67.9 °F /  19.9 °C 59.7 °F /  15.4 °C 29.94in /  1013.8hPa ESE 5.0mph /  8km/h 6.0mph /  9.7km/h 75% 0.00in /  0mm
08:13 67.7 °F /  19.8 °C 59.9 °F /  15.5 °C 29.94in /  1013.8hPa ESE 5.0mph /  8km/h 7.0mph /  11.3km/h 76% 0.00in /  0mm
08:18 67.6 °F /  19.8 °C 59.8 °F /  15.4 °C 29.95in /  1014.1hPa SE 3.0mph /  4.8km/h 5.0mph /  8km/h 76% 0.00in /  0mm
08:23 67.8 °F /  19.9 °C 60.3 °F /  15.7 °C 29.95in /  1014.1hPa ESE 6.0mph /  9.7km/h 7.0mph /  11.3km/h 77% 0.00in /  0mm
08:28 68.1 °F /  20.1 °C 60.6 °F /  15.9 °C 29.95in /  1014.1hPa ESE 4.0mph /  6.4km/h 6.0mph /  9.7km/h 77% 0.00in /  0mm
08:32 68.3 °F /  20.2 °C 60.8 °F /  16 °C 29.95in /  1014.1hPa SE 2.0mph /  3.2km/h 5.0mph /  8km/h 77% 0.00in /  0mm
08:33 68.4 °F /  20.2 °C 60.9 °F /  16.1 °C 29.95in /  1014.1hPa SSE 4.0mph /  6.4km/h 5.0mph /  8km/h 77% 0.00in /  0mm
08:34 68.4 °F /  20.2 °C 60.5 °F /  15.8 °C 29.96in /  1014.4hPa SSE 3.0mph /  4.8km/h 5.0mph /  8km/h 76% 0.00in /  0mm
08:38 68.7 °F /  20.4 °C 60.8 °F /  16 °C 29.95in /  1014.1hPa SE 4.0mph /  6.4km/h 7.0mph /  11.3km/h 76% 0.00in /  0mm
08:39 68.9 °F /  20.5 °C 61.0 °F /  16.1 °C 29.95in /  1014.1hPa SE 6.0mph /  9.7km/h 8.0mph /  12.9km/h 76% 0.00in /  0mm
08:44 69.4 °F /  20.8 °C 61.1 °F /  16.2 °C 29.95in /  1014.1hPa SSE 3.0mph /  4.8km/h 6.0mph /  9.7km/h 75% 0.00in /  0mm
08:49 70.0 °F /  21.1 °C 61.3 °F /  16.3 °C 29.95in /  1014.1hPa SE 7.0mph /  11.3km/h 7.0mph /  11.3km/h 74% 0.00in /  0mm
08:50 70.0 °F /  21.1 °C 61.0 °F /  16.1 °C 29.95in /  1014.1hPa SE 6.0mph /  9.7km/h 7.0mph /  11.3km/h 73% 0.00in /  0mm
08:55 69.9 °F /  21.1 °C 61.2 °F /  16.2 °C 29.95in /  1014.1hPa SE 3.0mph /  4.8km/h 6.0mph /  9.7km/h 74% 0.00in /  0mm
08:58 69.9 °F /  21.1 °C 61.2 °F /  16.2 °C 29.95in /  1014.1hPa SE 5.0mph /  8km/h 6.0mph /  9.7km/h 74% 0.00in /  0mm
09:00 69.9 °F /  21.1 °C 61.2 °F /  16.2 °C 29.96in /  1014.4hPa SSE 7.0mph /  11.3km/h 7.0mph /  11.3km/h 74% 0.00in /  0mm
09:05 70.2 °F /  21.2 °C 61.5 °F /  16.4 °C 29.96in /  1014.4hPa SE 5.0mph /  8km/h 7.0mph /  11.3km/h 74% 0.00in /  0mm
09:10 70.7 °F /  21.5 °C 61.6 °F /  16.4 °C 29.96in /  1014.4hPa South 5.0mph /  8km/h 8.0mph /  12.9km/h 73% 0.00in /  0mm
09:15 71.4 °F /  21.9 °C 61.9 °F /  16.6 °C 29.96in /  1014.4hPa SE 4.0mph /  6.4km/h 8.0mph /  12.9km/h 72% 0.00in /  0mm
09:20 72.0 °F /  22.2 °C 62.5 °F /  16.9 °C 29.96in /  1014.4hPa SE 4.0mph /  6.4km/h 8.0mph /  12.9km/h 72% 0.00in /  0mm
09:25 72.7 °F /  22.6 °C 62.8 °F /  17.1 °C 29.96in /  1014.4hPa SE 6.0mph /  9.7km/h 7.0mph /  11.3km/h 71% 0.00in /  0mm
09:26 72.7 °F /  22.6 °C 62.8 °F /  17.1 °C 29.96in /  1014.4hPa SE 6.0mph /  9.7km/h 7.0mph /  11.3km/h 71% 0.00in /  0mm
09:31 72.9 °F /  22.7 °C 63.0 °F /  17.2 °C 29.96in /  1014.4hPa SSE 8.0mph /  12.9km/h 9.0mph /  14.5km/h 71% 0.00in /  0mm
09:36 73.2 °F /  22.9 °C 63.6 °F /  17.6 °C 29.96in /  1014.4hPa SSE 8.0mph /  12.9km/h 8.0mph /  12.9km/h 72% 0.00in /  0mm
09:41 73.9 °F /  23.3 °C 64.7 °F /  18.2 °C 29.96in /  1014.4hPa SE 9.0mph /  14.5km/h 9.0mph /  14.5km/h 73% 0.00in /  0mm
09:46 73.9 °F /  23.3 °C 64.7 °F /  18.2 °C 29.95in /  1014.1hPa SSE 7.0mph /  11.3km/h 9.0mph /  14.5km/h 73% 0.00in /  0mm
09:51 74.1 °F /  23.4 °C 65.3 °F /  18.5 °C 29.95in /  1014.1hPa SE 6.0mph /  9.7km/h 8.0mph /  12.9km/h 74% 0.00in /  0mm
09:52 74.1 °F /  23.4 °C 65.3 °F /  18.5 °C 29.95in /  1014.1hPa SE 5.0mph /  8km/h 8.0mph /  12.9km/h 74% 0.00in /  0mm
09:56 74.6 °F /  23.7 °C 65.8 °F /  18.8 °C 29.95in /  1014.1hPa SE 9.0mph /  14.5km/h 9.0mph /  14.5km/h 74% 0.00in /  0mm
09:57 74.6 °F /  23.7 °C 65.8 °F /  18.8 °C 29.95in /  1014.1hPa SE 6.0mph /  9.7km/h 9.0mph /  14.5km/h 74% 0.00in /  0mm
10:02 74.6 °F /  23.7 °C 65.8 °F /  18.8 °C 29.95in /  1014.1hPa South 6.0mph /  9.7km/h 11.0mph /  17.7km/h 74% 0.00in /  0mm
10:07 74.8 °F /  23.8 °C 66.3 °F /  19.1 °C 29.95in /  1014.1hPa SSE 6.0mph /  9.7km/h 10.0mph /  16.1km/h 75% 0.00in /  0mm
10:12 74.8 °F /  23.8 °C 66.7 °F /  19.3 °C 29.95in /  1014.1hPa SE 5.0mph /  8km/h 9.0mph /  14.5km/h 76% 0.00in /  0mm
10:13 74.8 °F /  23.8 °C 66.7 °F /  19.3 °C 29.95in /  1014.1hPa SE 7.0mph /  11.3km/h 8.0mph /  12.9km/h 76% 0.00in /  0mm
10:17 75.0 °F /  23.9 °C 66.6 °F /  19.2 °C 29.95in /  1014.1hPa SE 5.0mph /  8km/h 13.0mph /  20.9km/h 75% 0.00in /  0mm
10:22 75.1 °F /  23.9 °C 66.6 °F /  19.2 °C 29.95in /  1014.1hPa SE 7.0mph /  11.3km/h 12.0mph /  19.3km/h 75% 0.00in /  0mm
10:23 75.2 °F /  24 °C 66.7 °F /  19.3 °C 29.95in /  1014.1hPa SW 4.0mph /  6.4km/h 9.0mph /  14.5km/h 75% 0.00in /  0mm
10:28 75.6 °F /  24.2 °C 67.1 °F /  19.5 °C 29.95in /  1014.1hPa SSE 5.0mph /  8km/h 10.0mph /  16.1km/h 75% 0.00in /  0mm
10:29 75.6 °F /  24.2 °C 67.1 °F /  19.5 °C 29.95in /  1014.1hPa South 5.0mph /  8km/h 10.0mph /  16.1km/h 75% 0.00in /  0mm
10:31 75.7 °F /  24.3 °C 66.4 °F /  19.1 °C 29.95in /  1014.1hPa South 5.0mph /  8km/h 10.0mph /  16.1km/h 73% 0.00in /  0mm
10:34 75.8 °F /  24.3 °C 66.9 °F /  19.4 °C 29.95in /  1014.1hPa SSE 4.0mph /  6.4km/h 8.0mph /  12.9km/h 74% 0.00in /  0mm
10:36 76.0 °F /  24.4 °C 67.1 °F /  19.5 °C 29.95in /  1014.1hPa SSE 4.0mph /  6.4km/h 6.0mph /  9.7km/h 74% 0.00in /  0mm
10:39 76.3 °F /  24.6 °C 67.4 °F /  19.7 °C 29.95in /  1014.1hPa SSW 5.0mph /  8km/h 7.0mph /  11.3km/h 74% 0.00in /  0mm
10:42 76.4 °F /  24.7 °C 67.5 °F /  19.7 °C 29.95in /  1014.1hPa SE 4.0mph /  6.4km/h 7.0mph /  11.3km/h 74% 0.00in /  0mm
10:47 76.8 °F /  24.9 °C 67.5 °F /  19.7 °C 29.94in /  1013.8hPa SSE 8.0mph /  12.9km/h 8.0mph /  12.9km/h 73% 0.00in /  0mm
10:52 77.0 °F /  25 °C 68.1 °F /  20.1 °C 29.94in /  1013.8hPa SE 7.0mph /  11.3km/h 7.0mph /  11.3km/h 74% 0.00in /  0mm
10:53 76.9 °F /  24.9 °C 68.0 °F /  20 °C 29.94in /  1013.8hPa South 3.0mph /  4.8km/h 8.0mph /  12.9km/h 74% 0.00in /  0mm
10:57 77.0 °F /  25 °C 68.1 °F /  20.1 °C 29.94in /  1013.8hPa South 5.0mph /  8km/h 9.0mph /  14.5km/h 74% 0.00in /  0mm
10:58 77.1 °F /  25.1 °C 68.6 °F /  20.3 °C 29.94in /  1013.8hPa South 4.0mph /  6.4km/h 9.0mph /  14.5km/h 75% 0.00in /  0mm
11:02 77.5 °F /  25.3 °C 68.2 °F /  20.1 °C 29.94in /  1013.8hPa SSW 5.0mph /  8km/h 6.0mph /  9.7km/h 73% 0.00in /  0mm
11:07 78.1 °F /  25.6 °C 69.1 °F /  20.6 °C 29.93in /  1013.4hPa SE 7.0mph /  11.3km/h 7.0mph /  11.3km/h 74% 0.00in /  0mm
11:12 78.1 °F /  25.6 °C 68.8 °F /  20.4 °C 29.93in /  1013.4hPa East 6.0mph /  9.7km/h 9.0mph /  14.5km/h 73% 0.00in /  0mm
11:17 77.6 °F /  25.3 °C 68.3 °F /  20.2 °C 29.93in /  1013.4hPa SSE 9.0mph /  14.5km/h 9.0mph /  14.5km/h 73% 0.00in /  0mm
11:22 77.9 °F /  25.5 °C 69.3 °F /  20.7 °C 29.92in /  1013.1hPa SSE 7.0mph /  11.3km/h 9.0mph /  14.5km/h 75% 0.00in /  0mm
11:27 78.4 °F /  25.8 °C 70.2 °F /  21.2 °C 29.92in /  1013.1hPa SE 7.0mph /  11.3km/h 7.0mph /  11.3km/h 76% 0.00in /  0mm
11:28 78.4 °F /  25.8 °C 69.0 °F /  20.6 °C 29.93in /  1013.4hPa SSE 6.0mph /  9.7km/h 7.0mph /  11.3km/h 73% 0.00in /  0mm
11:33 78.1 °F /  25.6 °C 68.8 °F /  20.4 °C 29.92in /  1013.1hPa ESE 6.0mph /  9.7km/h 11.0mph /  17.7km/h 73% 0.00in /  0mm
11:34 78.1 °F /  25.6 °C 69.9 °F /  21.1 °C 29.92in /  1013.1hPa South 3.0mph /  4.8km/h 11.0mph /  17.7km/h 76% 0.00in /  0mm
11:37 78.5 °F /  25.8 °C 70.3 °F /  21.3 °C 29.92in /  1013.1hPa SE 6.0mph /  9.7km/h 9.0mph /  14.5km/h 76% 0.00in /  0mm
11:42 78.8 °F /  26 °C 69.0 °F /  20.6 °C 29.92in /  1013.1hPa SE 7.0mph /  11.3km/h 7.0mph /  11.3km/h 72% 0.00in /  0mm
11:47 78.8 °F /  26 °C 69.8 °F /  21 °C 29.92in /  1013.1hPa SE 5.0mph /  8km/h 10.0mph /  16.1km/h 74% 0.00in /  0mm
11:52 79.2 °F /  26.2 °C 69.4 °F /  20.8 °C 29.92in /  1013.1hPa South 4.0mph /  6.4km/h 7.0mph /  11.3km/h 72% 0.00in /  0mm
11:57 79.7 °F /  26.5 °C 69.5 °F /  20.8 °C 29.92in /  1013.1hPa SE 7.0mph /  11.3km/h 10.0mph /  16.1km/h 71% 0.00in /  0mm
11:58 79.8 °F /  26.6 °C 69.6 °F /  20.9 °C 29.92in /  1013.1hPa South 5.0mph /  8km/h 10.0mph /  16.1km/h 71% 0.00in /  0mm
12:02 79.4 °F /  26.3 °C 68.3 °F /  20.2 °C 29.92in /  1013.1hPa SE 6.0mph /  9.7km/h 12.0mph /  19.3km/h 69% 0.00in /  0mm
12:03 79.3 °F /  26.3 °C 68.3 °F /  20.2 °C 29.92in /  1013.1hPa SE 7.0mph /  11.3km/h 11.0mph /  17.7km/h 69% 0.00in /  0mm
12:07 78.9 °F /  26.1 °C 69.1 °F /  20.6 °C 29.91in /  1012.8hPa SE 5.0mph /  8km/h 10.0mph /  16.1km/h 72% 0.00in /  0mm
12:12 79.2 °F /  26.2 °C 69.4 °F /  20.8 °C 29.90in /  1012.4hPa SE 5.0mph /  8km/h 7.0mph /  11.3km/h 72% 0.00in /  0mm
12:13 79.2 °F /  26.2 °C 69.8 °F /  21 °C 29.90in /  1012.4hPa ESE 6.0mph /  9.7km/h 6.0mph /  9.7km/h 73% 0.00in /  0mm
12:18 80.0 °F /  26.7 °C 69.8 °F /  21 °C 29.90in /  1012.4hPa ESE 8.0mph /  12.9km/h 9.0mph /  14.5km/h 71% 0.00in /  0mm
12:23 80.5 °F /  26.9 °C 69.8 °F /  21 °C 29.90in /  1012.4hPa SSE 8.0mph /  12.9km/h 10.0mph /  16.1km/h 70% 0.00in /  0mm
12:24 80.4 °F /  26.9 °C 69.3 °F /  20.7 °C 29.90in /  1012.4hPa ESE 6.0mph /  9.7km/h 12.0mph /  19.3km/h 69% 0.00in /  0mm
12:28 80.2 °F /  26.8 °C 69.5 °F /  20.8 °C 29.90in /  1012.4hPa SE 7.0mph /  11.3km/h 8.0mph /  12.9km/h 70% 0.00in /  0mm
12:30 80.2 °F /  26.8 °C 68.7 °F /  20.4 °C 29.89in /  1012.1hPa ESE 9.0mph /  14.5km/h 10.0mph /  16.1km/h 68% 0.00in /  0mm
12:31 80.3 °F /  26.8 °C 69.2 °F /  20.7 °C 29.89in /  1012.1hPa SE 7.0mph /  11.3km/h 10.0mph /  16.1km/h 69% 0.00in /  0mm
12:33 80.4 °F /  26.9 °C 69.7 °F /  20.9 °C 29.90in /  1012.4hPa SSE 11.0mph /  17.7km/h 11.0mph /  17.7km/h 70% 0.00in /  0mm
12:35 80.4 °F /  26.9 °C 68.4 °F /  20.2 °C 29.90in /  1012.4hPa ESE 12.0mph /  19.3km/h 13.0mph /  20.9km/h 67% 0.00in /  0mm
12:37 80.5 °F /  26.9 °C 69.0 °F /  20.6 °C 29.89in /  1012.1hPa SE 6.0mph /  9.7km/h 14.0mph /  22.5km/h 68% 0.00in /  0mm
12:42 81.0 °F /  27.2 °C 69.0 °F /  20.6 °C 29.89in /  1012.1hPa SSE 9.0mph /  14.5km/h 13.0mph /  20.9km/h 67% 0.00in /  0mm
12:47 80.8 °F /  27.1 °C 69.3 °F /  20.7 °C 29.89in /  1012.1hPa SE 10.0mph /  16.1km/h 11.0mph /  17.7km/h 68% 0.00in /  0mm
12:52 80.8 °F /  27.1 °C 69.7 °F /  20.9 °C 29.88in /  1011.7hPa ESE 8.0mph /  12.9km/h 12.0mph /  19.3km/h 69% 0.00in /  0mm
12:57 81.2 °F /  27.3 °C 69.2 °F /  20.7 °C 29.88in /  1011.7hPa ESE 8.0mph /  12.9km/h 15.0mph /  24.1km/h 67% 0.00in /  0mm
12:58 81.2 °F /  27.3 °C 70.5 °F /  21.4 °C 29.88in /  1011.7hPa ESE 8.0mph /  12.9km/h 15.0mph /  24.1km/h 70% 0.00in /  0mm
13:02 81.5 °F /  27.5 °C 70.8 °F /  21.6 °C 29.88in /  1011.7hPa SE 12.0mph /  19.3km/h 14.0mph /  22.5km/h 70% 0.00in /  0mm
13:07 81.8 °F /  27.7 °C 70.6 °F /  21.4 °C 29.88in /  1011.7hPa ESE 7.0mph /  11.3km/h 13.0mph /  20.9km/h 69% 0.00in /  0mm
13:08 81.9 °F /  27.7 °C 70.7 °F /  21.5 °C 29.88in /  1011.7hPa SE 9.0mph /  14.5km/h 13.0mph /  20.9km/h 69% 0.00in /  0mm
13:13 82.2 °F /  27.9 °C 69.7 °F /  20.9 °C 29.88in /  1011.7hPa ESE 9.0mph /  14.5km/h 15.0mph /  24.1km/h 66% 0.00in /  0mm
13:14 82.3 °F /  27.9 °C 70.3 °F /  21.3 °C 29.87in /  1011.4hPa ESE 13.0mph /  20.9km/h 15.0mph /  24.1km/h 67% 0.00in /  0mm
13:18 82.7 °F /  28.2 °C 70.6 °F /  21.4 °C 29.88in /  1011.7hPa SSE 9.0mph /  14.5km/h 11.0mph /  17.7km/h 67% 0.00in /  0mm
13:23 83.0 °F /  28.3 °C 69.6 °F /  20.9 °C 29.88in /  1011.7hPa East 10.0mph /  16.1km/h 16.0mph /  25.7km/h 64% 0.00in /  0mm
13:28 83.2 °F /  28.4 °C 69.8 °F /  21 °C 29.88in /  1011.7hPa South 9.0mph /  14.5km/h 13.0mph /  20.9km/h 64% 0.00in /  0mm
13:29 83.3 °F /  28.5 °C 69.9 °F /  21.1 °C 29.88in /  1011.7hPa SSE 10.0mph /  16.1km/h 13.0mph /  20.9km/h 64% 0.00in /  0mm
13:33 83.7 °F /  28.7 °C 70.7 °F /  21.5 °C 29.89in /  1012.1hPa SW 6.0mph /  9.7km/h 13.0mph /  20.9km/h 65% 0.00in /  0mm
13:35 83.7 °F /  28.7 °C 69.8 °F /  21 °C 29.89in /  1012.1hPa South 6.0mph /  9.7km/h 10.0mph /  16.1km/h 63% 0.00in /  0mm
13:38 83.8 °F /  28.8 °C 70.3 °F /  21.3 °C 29.88in /  1011.7hPa ESE 11.0mph /  17.7km/h 11.0mph /  17.7km/h 64% 0.00in /  0mm
13:43 83.7 °F /  28.7 °C 71.6 °F /  22 °C 29.88in /  1011.7hPa SE 6.0mph /  9.7km/h 16.0mph /  25.7km/h 67% 0.00in /  0mm
13:48 83.9 °F /  28.8 °C 70.0 °F /  21.1 °C 29.89in /  1012.1hPa SE 6.0mph /  9.7km/h 13.0mph /  20.9km/h 63% 0.00in /  0mm
13:53 84.3 °F /  29.1 °C 71.7 °F /  22.1 °C 29.89in /  1012.1hPa SSW 3.0mph /  4.8km/h 11.0mph /  17.7km/h 66% 0.00in /  0mm
13:56 84.7 °F /  29.3 °C 69.8 °F /  21 °C 29.89in /  1012.1hPa SE 11.0mph /  17.7km/h 14.0mph /  22.5km/h 61% 0.00in /  0mm
13:58 84.8 °F /  29.3 °C 70.3 °F /  21.3 °C 29.89in /  1012.1hPa South 13.0mph /  20.9km/h 14.0mph /  22.5km/h 62% 0.00in /  0mm
14:01 84.9 °F /  29.4 °C 68.0 °F /  20 °C 29.89in /  1012.1hPa SW 9.0mph /  14.5km/h 13.0mph /  20.9km/h 57% 0.00in /  0mm
14:06 84.9 °F /  29.4 °C 68.5 °F /  20.3 °C 29.88in /  1011.7hPa South 6.0mph /  9.7km/h 13.0mph /  20.9km/h 58% 0.00in /  0mm
14:11 84.9 °F /  29.4 °C 68.5 °F /  20.3 °C 29.89in /  1012.1hPa SE 8.0mph /  12.9km/h 11.0mph /  17.7km/h 58% 0.00in /  0mm
14:16 84.9 °F /  29.4 °C 70.4 °F /  21.3 °C 29.88in /  1011.7hPa SSE 9.0mph /  14.5km/h 15.0mph /  24.1km/h 62% 0.00in /  0mm
14:21 84.7 °F /  29.3 °C 69.3 °F /  20.7 °C 29.89in /  1012.1hPa SSE 6.0mph /  9.7km/h 12.0mph /  19.3km/h 60% 0.00in /  0mm
14:26 85.3 °F /  29.6 °C 68.9 °F /  20.5 °C 29.89in /  1012.1hPa SSE 8.0mph /  12.9km/h 19.0mph /  30.6km/h 58% 0.00in /  0mm
14:27 85.4 °F /  29.7 °C 69.0 °F /  20.6 °C 29.89in /  1012.1hPa SSW 8.0mph /  12.9km/h 19.0mph /  30.6km/h 58% 0.00in /  0mm
14:28 85.4 °F /  29.7 °C 69.0 °F /  20.6 °C 29.89in /  1012.1hPa SSW 9.0mph /  14.5km/h 21.0mph /  33.8km/h 58% 0.00in /  0mm
14:31 85.4 °F /  29.7 °C 69.0 °F /  20.6 °C 29.89in /  1012.1hPa South 9.0mph /  14.5km/h 14.0mph /  22.5km/h 58% 0.00in /  0mm
14:32 85.5 °F /  29.7 °C 68.5 °F /  20.3 °C 29.89in /  1012.1hPa SSE 10.0mph /  16.1km/h 10.0mph /  16.1km/h 57% 0.00in /  0mm
14:33 85.5 °F /  29.7 °C 68.5 °F /  20.3 °C 29.89in /  1012.1hPa South 9.0mph /  14.5km/h 10.0mph /  16.1km/h 57% 0.00in /  0mm
14:37 85.6 °F /  29.8 °C 69.1 °F /  20.6 °C 29.89in /  1012.1hPa SW 4.0mph /  6.4km/h 12.0mph /  19.3km/h 58% 0.00in /  0mm
14:38 85.7 °F /  29.8 °C 69.2 °F /  20.7 °C 29.89in /  1012.1hPa ESE 11.0mph /  17.7km/h 11.0mph /  17.7km/h 58% 0.00in /  0mm
14:43 85.9 °F /  29.9 °C 70.4 °F /  21.3 °C 29.89in /  1012.1hPa SE 8.0mph /  12.9km/h 12.0mph /  19.3km/h 60% 0.00in /  0mm
14:44 85.8 °F /  29.9 °C 69.3 °F /  20.7 °C 29.88in /  1011.7hPa SSE 5.0mph /  8km/h 12.0mph /  19.3km/h 58% 0.00in /  0mm
14:48 85.9 °F /  29.9 °C 67.9 °F /  19.9 °C 29.89in /  1012.1hPa South 8.0mph /  12.9km/h 14.0mph /  22.5km/h 55% 0.00in /  0mm
14:53 85.9 °F /  29.9 °C 67.3 °F /  19.6 °C 29.89in /  1012.1hPa South 10.0mph /  16.1km/h 15.0mph /  24.1km/h 54% 0.00in /  0mm
14:55 85.9 °F /  29.9 °C 67.9 °F /  19.9 °C 29.89in /  1012.1hPa SE 14.0mph /  22.5km/h 14.0mph /  22.5km/h 55% 0.00in /  0mm
14:56 85.9 °F /  29.9 °C 67.9 °F /  19.9 °C 29.89in /  1012.1hPa SSW 9.0mph /  14.5km/h 14.0mph /  22.5km/h 55% 0.00in /  0mm
15:00 85.9 °F /  29.9 °C 67.9 °F /  19.9 °C 29.89in /  1012.1hPa SE 8.0mph /  12.9km/h 15.0mph /  24.1km/h 55% 0.00in /  0mm
15:05 85.6 °F /  29.8 °C 68.6 °F /  20.3 °C 29.88in /  1011.7hPa SSE 5.0mph /  8km/h 14.0mph /  22.5km/h 57% 0.00in /  0mm
15:11 85.8 °F /  29.9 °C 67.8 °F /  19.9 °C 29.89in /  1012.1hPa SE 12.0mph /  19.3km/h 12.0mph /  19.3km/h 55% 0.00in /  0mm
15:16 85.1 °F /  29.5 °C 68.7 °F /  20.4 °C 29.88in /  1011.7hPa South 6.0mph /  9.7km/h 12.0mph /  19.3km/h 58% 0.00in /  0mm
15:21 85.4 °F /  29.7 °C 69.0 °F /  20.6 °C 29.89in /  1012.1hPa SSW 5.0mph /  8km/h 14.0mph /  22.5km/h 58% 0.00in /  0mm
15:26 85.2 °F /  29.6 °C 68.8 °F /  20.4 °C 29.88in /  1011.7hPa SSW 9.0mph /  14.5km/h 20.0mph /  32.2km/h 58% 0.00in /  0mm
15:31 84.5 °F /  29.2 °C 67.1 °F /  19.5 °C 29.88in /  1011.7hPa SE 5.0mph /  8km/h 13.0mph /  20.9km/h 56% 0.00in /  0mm
15:34 84.3 °F /  29.1 °C 66.4 °F /  19.1 °C 29.88in /  1011.7hPa SW 8.0mph /  12.9km/h 11.0mph /  17.7km/h 55% 0.00in /  0mm
15:37 84.5 °F /  29.2 °C 67.6 °F /  19.8 °C 29.88in /  1011.7hPa SW 14.0mph /  22.5km/h 14.0mph /  22.5km/h 57% 0.00in /  0mm
15:42 84.3 °F /  29.1 °C 66.9 °F /  19.4 °C 29.88in /  1011.7hPa WSW 10.0mph /  16.1km/h 12.0mph /  19.3km/h 56% 0.00in /  0mm
15:43 84.2 °F /  29 °C 66.3 °F /  19.1 °C 29.88in /  1011.7hPa West 9.0mph /  14.5km/h 10.0mph /  16.1km/h 55% 0.00in /  0mm
15:47 84.7 °F /  29.3 °C 67.3 °F /  19.6 °C 29.88in /  1011.7hPa SW 5.0mph /  8km/h 12.0mph /  19.3km/h 56% 0.00in /  0mm
15:48 85.0 °F /  29.4 °C 67.6 °F /  19.8 °C 29.88in /  1011.7hPa SSW 7.0mph /  11.3km/h 12.0mph /  19.3km/h 56% 0.00in /  0mm
15:53 85.7 °F /  29.8 °C 66.1 °F /  18.9 °C 29.88in /  1011.7hPa SSW 6.0mph /  9.7km/h 16.0mph /  25.7km/h 52% 0.00in /  0mm
15:54 85.8 °F /  29.9 °C 67.8 °F /  19.9 °C 29.88in /  1011.7hPa SW 6.0mph /  9.7km/h 16.0mph /  25.7km/h 55% 0.00in /  0mm
15:59 86.2 °F /  30.1 °C 67.1 °F /  19.5 °C 29.88in /  1011.7hPa SW 10.0mph /  16.1km/h 12.0mph /  19.3km/h 53% 0.00in /  0mm
16:00 86.3 °F /  30.2 °C 67.2 °F /  19.6 °C 29.88in /  1011.7hPa SSW 5.0mph /  8km/h 16.0mph /  25.7km/h 53% 0.00in /  0mm
16:04 85.9 °F /  29.9 °C 65.1 °F /  18.4 °C 29.88in /  1011.7hPa SW 11.0mph /  17.7km/h 14.0mph /  22.5km/h 50% 0.00in /  0mm
16:05 85.6 °F /  29.8 °C 64.8 °F /  18.2 °C 29.88in /  1011.7hPa SSW 17.0mph /  27.4km/h 19.0mph /  30.6km/h 50% 0.00in /  0mm
16:09 85.3 °F /  29.6 °C 65.7 °F /  18.7 °C 29.88in /  1011.7hPa WSW 16.0mph /  25.7km/h 17.0mph /  27.4km/h 52% 0.00in /  0mm
16:14 84.7 °F /  29.3 °C 65.1 °F /  18.4 °C 29.88in /  1011.7hPa South 7.0mph /  11.3km/h 16.0mph /  25.7km/h 52% 0.00in /  0mm
16:19 84.1 °F /  28.9 °C 65.1 °F /  18.4 °C 29.88in /  1011.7hPa SW 12.0mph /  19.3km/h 17.0mph /  27.4km/h 53% 0.00in /  0mm
16:24 84.2 °F /  29 °C 66.3 °F /  19.1 °C 29.88in /  1011.7hPa WSW 9.0mph /  14.5km/h 15.0mph /  24.1km/h 55% 0.00in /  0mm
16:29 84.8 °F /  29.3 °C 67.9 °F /  19.9 °C 29.88in /  1011.7hPa SW 15.0mph /  24.1km/h 15.0mph /  24.1km/h 57% 0.00in /  0mm
16:33 85.0 °F /  29.4 °C 67.6 °F /  19.8 °C 29.88in /  1011.7hPa SW 8.0mph /  12.9km/h 14.0mph /  22.5km/h 56% 0.00in /  0mm
16:34 85.1 °F /  29.5 °C 66.6 °F /  19.2 °C 29.88in /  1011.7hPa SW 9.0mph /  14.5km/h 15.0mph /  24.1km/h 54% 0.00in /  0mm
16:35 85.1 °F /  29.5 °C 66.6 °F /  19.2 °C 29.88in /  1011.7hPa SW 8.0mph /  12.9km/h 15.0mph /  24.1km/h 54% 0.00in /  0mm
16:40 85.5 °F /  29.7 °C 66.4 °F /  19.1 °C 29.88in /  1011.7hPa SW 6.0mph /  9.7km/h 16.0mph /  25.7km/h 53% 0.00in /  0mm
16:45 85.7 °F /  29.8 °C 66.6 °F /  19.2 °C 29.88in /  1011.7hPa West 10.0mph /  16.1km/h 17.0mph /  27.4km/h 53% 0.00in /  0mm
16:50 85.9 °F /  29.9 °C 66.2 °F /  19 °C 29.88in /  1011.7hPa West 9.0mph /  14.5km/h 15.0mph /  24.1km/h 52% 0.00in /  0mm
16:51 85.9 °F /  29.9 °C 65.7 °F /  18.7 °C 29.88in /  1011.7hPa WSW 12.0mph /  19.3km/h 15.0mph /  24.1km/h 51% 0.00in /  0mm
16:55 85.9 °F /  29.9 °C 65.7 °F /  18.7 °C 29.88in /  1011.7hPa WSW 13.0mph /  20.9km/h 16.0mph /  25.7km/h 51% 0.00in /  0mm
16:56 85.9 °F /  29.9 °C 65.7 °F /  18.7 °C 29.88in /  1011.7hPa SW 10.0mph /  16.1km/h 16.0mph /  25.7km/h 51% 0.00in /  0mm
16:57 85.9 °F /  29.9 °C 66.2 °F /  19 °C 29.88in /  1011.7hPa WSW 14.0mph /  22.5km/h 16.0mph /  25.7km/h 52% 0.00in /  0mm
17:01 85.9 °F /  29.9 °C 65.7 °F /  18.7 °C 29.88in /  1011.7hPa WSW 14.0mph /  22.5km/h 14.0mph /  22.5km/h 51% 0.00in /  0mm
17:02 85.8 °F /  29.9 °C 65.6 °F /  18.7 °C 29.88in /  1011.7hPa SW 9.0mph /  14.5km/h 15.0mph /  24.1km/h 51% 0.00in /  0mm
17:07 85.9 °F /  29.9 °C 65.7 °F /  18.7 °C 29.88in /  1011.7hPa WSW 9.0mph /  14.5km/h 11.0mph /  17.7km/h 51% 0.00in /  0mm
17:12 86.0 °F /  30 °C 66.9 °F /  19.4 °C 29.87in /  1011.4hPa WSW 5.0mph /  8km/h 12.0mph /  19.3km/h 53% 0.00in /  0mm
17:17 86.3 °F /  30.2 °C 65.5 °F /  18.6 °C 29.87in /  1011.4hPa SW 12.0mph /  19.3km/h 12.0mph /  19.3km/h 50% 0.00in /  0mm
17:18 86.3 °F /  30.2 °C 64.9 °F /  18.3 °C 29.87in /  1011.4hPa WSW 10.0mph /  16.1km/h 12.0mph /  19.3km/h 49% 0.00in /  0mm
17:23 86.2 °F /  30.1 °C 65.4 °F /  18.6 °C 29.88in /  1011.7hPa SW 9.0mph /  14.5km/h 13.0mph /  20.9km/h 50% 0.00in /  0mm
17:28 85.6 °F /  29.8 °C 64.3 °F /  17.9 °C 29.87in /  1011.4hPa SW 8.0mph /  12.9km/h 12.0mph /  19.3km/h 49% 0.00in /  0mm
17:30 85.8 °F /  29.9 °C 64.4 °F /  18 °C 29.87in /  1011.4hPa SW 6.0mph /  9.7km/h 13.0mph /  20.9km/h 49% 0.00in /  0mm
17:31 85.9 °F /  29.9 °C 65.7 °F /  18.7 °C 29.87in /  1011.4hPa SSW 7.0mph /  11.3km/h 13.0mph /  20.9km/h 51% 0.00in /  0mm
17:33 86.1 °F /  30.1 °C 64.1 °F /  17.8 °C 29.87in /  1011.4hPa SW 10.0mph /  16.1km/h 15.0mph /  24.1km/h 48% 0.00in /  0mm
17:35 86.1 °F /  30.1 °C 65.3 °F /  18.5 °C 29.87in /  1011.4hPa SW 13.0mph /  20.9km/h 15.0mph /  24.1km/h 50% 0.00in /  0mm
17:36 86.1 °F /  30.1 °C 64.7 °F /  18.2 °C 29.87in /  1011.4hPa SW 12.0mph /  19.3km/h 15.0mph /  24.1km/h 49% 0.00in /  0mm
17:41 86.1 °F /  30.1 °C 65.9 °F /  18.8 °C 29.87in /  1011.4hPa SW 8.0mph /  12.9km/h 15.0mph /  24.1km/h 51% 0.00in /  0mm
17:46 86.1 °F /  30.1 °C 65.9 °F /  18.8 °C 29.87in /  1011.4hPa West 6.0mph /  9.7km/h 13.0mph /  20.9km/h 51% 0.00in /  0mm
17:51 84.9 °F /  29.4 °C 64.8 °F /  18.2 °C 29.88in /  1011.7hPa SW 14.0mph /  22.5km/h 17.0mph /  27.4km/h 51% 0.00in /  0mm
17:52 84.8 °F /  29.3 °C 64.7 °F /  18.2 °C 29.88in /  1011.7hPa SW 12.0mph /  19.3km/h 17.0mph /  27.4km/h 51% 0.00in /  0mm
17:53 84.7 °F /  29.3 °C 65.1 °F /  18.4 °C 29.88in /  1011.7hPa WSW 7.0mph /  11.3km/h 17.0mph /  27.4km/h 52% 0.00in /  0mm
17:57 85.0 °F /  29.4 °C 66.5 °F /  19.2 °C 29.87in /  1011.4hPa SW 6.0mph /  9.7km/h 14.0mph /  22.5km/h 54% 0.00in /  0mm
17:59 85.2 °F /  29.6 °C 66.7 °F /  19.3 °C 29.87in /  1011.4hPa South 7.0mph /  11.3km/h 14.0mph /  22.5km/h 54% 0.00in /  0mm
18:04 85.6 °F /  29.8 °C 66.0 °F /  18.9 °C 29.88in /  1011.7hPa SW 3.0mph /  4.8km/h 12.0mph /  19.3km/h 52% 0.00in /  0mm
18:05 85.6 °F /  29.8 °C 67.1 °F /  19.5 °C 29.88in /  1011.7hPa SW 5.0mph /  8km/h 12.0mph /  19.3km/h 54% 0.00in /  0mm
18:10 85.1 °F /  29.5 °C 65.5 °F /  18.6 °C 29.88in /  1011.7hPa West 13.0mph /  20.9km/h 13.0mph /  20.9km/h 52% 0.00in /  0mm
18:15 85.3 °F /  29.6 °C 65.7 °F /  18.7 °C 29.87in /  1011.4hPa SW 11.0mph /  17.7km/h 14.0mph /  22.5km/h 52% 0.00in /  0mm
18:20 85.2 °F /  29.6 °C 66.2 °F /  19 °C 29.88in /  1011.7hPa SW 9.0mph /  14.5km/h 10.0mph /  16.1km/h 53% 0.00in /  0mm
18:25 85.2 °F /  29.6 °C 65.6 °F /  18.7 °C 29.88in /  1011.7hPa SW 9.0mph /  14.5km/h 13.0mph /  20.9km/h 52% 0.00in /  0mm
18:26 85.2 °F /  29.6 °C 65.6 °F /  18.7 °C 29.87in /  1011.4hPa SW 7.0mph /  11.3km/h 13.0mph /  20.9km/h 52% 0.00in /  0mm
18:30 85.3 °F /  29.6 °C 65.1 °F /  18.4 °C 29.87in /  1011.4hPa SW 6.0mph /  9.7km/h 13.0mph /  20.9km/h 51% 0.00in /  0mm
18:31 85.3 °F /  29.6 °C 66.2 °F /  19 °C 29.87in /  1011.4hPa WSW 10.0mph /  16.1km/h 13.0mph /  20.9km/h 53% 0.00in /  0mm
18:35 85.1 °F /  29.5 °C 65.5 °F /  18.6 °C 29.87in /  1011.4hPa WSW 11.0mph /  17.7km/h 13.0mph /  20.9km/h 52% 0.00in /  0mm
18:36 85.1 °F /  29.5 °C 66.1 °F /  18.9 °C 29.87in /  1011.4hPa SW 5.0mph /  8km/h 11.0mph /  17.7km/h 53% 0.00in /  0mm
18:41 85.2 °F /  29.6 °C 65.6 °F /  18.7 °C 29.87in /  1011.4hPa SW 8.0mph /  12.9km/h 11.0mph /  17.7km/h 52% 0.00in /  0mm
18:46 85.3 °F /  29.6 °C 66.2 °F /  19 °C 29.87in /  1011.4hPa SSW 7.0mph /  11.3km/h 9.0mph /  14.5km/h 53% 0.00in /  0mm
18:51 85.2 °F /  29.6 °C 66.2 °F /  19 °C 29.87in /  1011.4hPa SW 5.0mph /  8km/h 12.0mph /  19.3km/h 53% 0.00in /  0mm
18:52 85.2 °F /  29.6 °C 66.2 °F /  19 °C 29.87in /  1011.4hPa SW 6.0mph /  9.7km/h 12.0mph /  19.3km/h 53% 0.00in /  0mm
18:55 85.2 °F /  29.6 °C 66.7 °F /  19.3 °C 29.87in /  1011.4hPa SW 5.0mph /  8km/h 9.0mph /  14.5km/h 54% 0.00in /  0mm
18:57 85.2 °F /  29.6 °C 65.6 °F /  18.7 °C 29.87in /  1011.4hPa West 6.0mph /  9.7km/h 7.0mph /  11.3km/h 52% 0.00in /  0mm
19:00 85.2 °F /  29.6 °C 66.2 °F /  19 °C 29.88in /  1011.7hPa WSW 9.0mph /  14.5km/h 9.0mph /  14.5km/h 53% 0.00in /  0mm
19:05 84.9 °F /  29.4 °C 65.9 °F /  18.8 °C 29.88in /  1011.7hPa West 6.0mph /  9.7km/h 11.0mph /  17.7km/h 53% 0.00in /  0mm
19:10 84.8 °F /  29.3 °C 65.8 °F /  18.8 °C 29.88in /  1011.7hPa SW 3.0mph /  4.8km/h 8.0mph /  12.9km/h 53% 0.00in /  0mm
19:15 84.8 °F /  29.3 °C 65.8 °F /  18.8 °C 29.88in /  1011.7hPa South 5.0mph /  8km/h 8.0mph /  12.9km/h 53% 0.00in /  0mm
19:20 84.8 °F /  29.3 °C 65.8 °F /  18.8 °C 29.88in /  1011.7hPa SW 4.0mph /  6.4km/h 8.0mph /  12.9km/h 53% 0.00in /  0mm
19:25 84.6 °F /  29.2 °C 66.1 °F /  18.9 °C 29.88in /  1011.7hPa WSW 4.0mph /  6.4km/h 8.0mph /  12.9km/h 54% 0.00in /  0mm
19:26 84.6 °F /  29.2 °C 66.1 °F /  18.9 °C 29.88in /  1011.7hPa WSW 6.0mph /  9.7km/h 8.0mph /  12.9km/h 54% 0.00in /  0mm
19:31 84.4 °F /  29.1 °C 64.9 °F /  18.3 °C 29.88in /  1011.7hPa WSW 5.0mph /  8km/h 9.0mph /  14.5km/h 52% 0.00in /  0mm
19:32 84.3 °F /  29.1 °C 65.3 °F /  18.5 °C 29.88in /  1011.7hPa West 3.0mph /  4.8km/h 9.0mph /  14.5km/h 53% 0.00in /  0mm
19:36 84.3 °F /  29.1 °C 65.9 °F /  18.8 °C 29.88in /  1011.7hPa WSW 3.0mph /  4.8km/h 6.0mph /  9.7km/h 54% 0.00in /  0mm
19:41 84.3 °F /  29.1 °C 65.9 °F /  18.8 °C 29.88in /  1011.7hPa SW 3.0mph /  4.8km/h 7.0mph /  11.3km/h 54% 0.00in /  0mm
19:46 84.0 °F /  28.9 °C 66.1 °F /  18.9 °C 29.88in /  1011.7hPa SW 1.0mph /  1.6km/h 4.0mph /  6.4km/h 55% 0.00in /  0mm
19:51 83.5 °F /  28.6 °C 65.7 °F /  18.7 °C 29.88in /  1011.7hPa SSW 7.0mph /  11.3km/h 8.0mph /  12.9km/h 55% 0.00in /  0mm
19:52 83.4 °F /  28.6 °C 65.6 °F /  18.7 °C 29.88in /  1011.7hPa WSW 4.0mph /  6.4km/h 8.0mph /  12.9km/h 55% 0.00in /  0mm
19:57 82.9 °F /  28.3 °C 66.1 °F /  18.9 °C 29.88in /  1011.7hPa SW 3.0mph /  4.8km/h 7.0mph /  11.3km/h 57% 0.00in /  0mm
19:58 82.9 °F /  28.3 °C 66.1 °F /  18.9 °C 29.88in /  1011.7hPa WSW 4.0mph /  6.4km/h 7.0mph /  11.3km/h 57% 0.00in /  0mm
20:02 82.4 °F /  28 °C 66.2 °F /  19 °C 29.88in /  1011.7hPa SSW 4.0mph /  6.4km/h 4.0mph /  6.4km/h 58% 0.00in /  0mm
20:03 82.4 °F /  28 °C 66.2 °F /  19 °C 29.88in /  1011.7hPa SW 4.0mph /  6.4km/h 4.0mph /  6.4km/h 58% 0.00in /  0mm
20:08 81.9 °F /  27.7 °C 66.7 °F /  19.3 °C 29.88in /  1011.7hPa SW 2.0mph /  3.2km/h 5.0mph /  8km/h 60% 0.00in /  0mm
20:13 81.4 °F /  27.4 °C 66.2 °F /  19 °C 29.88in /  1011.7hPa WSW 4.0mph /  6.4km/h 4.0mph /  6.4km/h 60% 0.00in /  0mm
20:18 81.4 °F /  27.4 °C 66.7 °F /  19.3 °C 29.88in /  1011.7hPa SW 2.0mph /  3.2km/h 4.0mph /  6.4km/h 61% 0.00in /  0mm
20:23 81.4 °F /  27.4 °C 66.7 °F /  19.3 °C 29.88in /  1011.7hPa WSW 1.0mph /  1.6km/h 5.0mph /  8km/h 61% 0.00in /  0mm
20:28 81.1 °F /  27.3 °C 66.9 °F /  19.4 °C 29.88in /  1011.7hPa SW 2.0mph /  3.2km/h 4.0mph /  6.4km/h 62% 0.00in /  0mm
20:29 81.1 °F /  27.3 °C 67.3 °F /  19.6 °C 29.88in /  1011.7hPa SSW 2.0mph /  3.2km/h 4.0mph /  6.4km/h 63% 0.00in /  0mm
20:34 80.9 °F /  27.2 °C 67.1 °F /  19.5 °C 29.88in /  1011.7hPa SW 3.0mph /  4.8km/h 6.0mph /  9.7km/h 63% 0.00in /  0mm
20:35 80.8 °F /  27.1 °C 67.0 °F /  19.4 °C 29.88in /  1011.7hPa SW 3.0mph /  4.8km/h 6.0mph /  9.7km/h 63% 0.00in /  0mm
20:37 80.7 °F /  27.1 °C 66.9 °F /  19.4 °C 29.88in /  1011.7hPa SW 3.0mph /  4.8km/h 5.0mph /  8km/h 63% 0.00in /  0mm
20:39 80.6 °F /  27 °C 67.3 °F /  19.6 °C 29.88in /  1011.7hPa SW 2.0mph /  3.2km/h 4.0mph /  6.4km/h 64% 0.00in /  0mm
20:44 80.1 °F /  26.7 °C 67.3 °F /  19.6 °C 29.88in /  1011.7hPa SSW 1.0mph /  1.6km/h 2.0mph /  3.2km/h 65% 0.00in /  0mm
20:49 79.6 °F /  26.4 °C 66.8 °F /  19.3 °C 29.89in /  1012.1hPa South 1.0mph /  1.6km/h 2.0mph /  3.2km/h 65% 0.00in /  0mm
20:54 79.1 °F /  26.2 °C 66.8 °F /  19.3 °C 29.88in /  1011.7hPa South 2.0mph /  3.2km/h 2.0mph /  3.2km/h 66% 0.00in /  0mm
20:55 79.0 °F /  26.1 °C 67.1 °F /  19.5 °C 29.88in /  1011.7hPa SSW 1.0mph /  1.6km/h 2.0mph /  3.2km/h 67% 0.00in /  0mm
20:58 78.8 °F /  26 °C 66.9 °F /  19.4 °C 29.88in /  1011.7hPa SSE 1.0mph /  1.6km/h 2.0mph /  3.2km/h 67% 0.00in /  0mm
21:03 78.3 °F /  25.7 °C 66.9 °F /  19.4 °C 29.89in /  1012.1hPa SSE 1.0mph /  1.6km/h 2.0mph /  3.2km/h 68% 0.00in /  0mm
21:08 78.0 °F /  25.6 °C 67.0 °F /  19.4 °C 29.89in /  1012.1hPa Calm   1.0mph /  1.6km/h 69% 0.00in /  0mm
21:13 77.5 °F /  25.3 °C 66.9 °F /  19.4 °C 29.89in /  1012.1hPa SSW 1.0mph /  1.6km/h 1.0mph /  1.6km/h 70% 0.00in /  0mm
21:15 77.4 °F /  25.2 °C 66.9 °F /  19.4 °C 29.89in /  1012.1hPa South 1.0mph /  1.6km/h 1.0mph /  1.6km/h 70% 0.00in /  0mm
21:19 77.3 °F /  25.2 °C 66.8 °F /  19.3 °C 29.89in /  1012.1hPa South 2.0mph /  3.2km/h 2.0mph /  3.2km/h 70% 0.00in /  0mm
21:24 77.2 °F /  25.1 °C 66.7 °F /  19.3 °C 29.89in /  1012.1hPa SSW 3.0mph /  4.8km/h 3.0mph /  4.8km/h 70% 0.00in /  0mm
21:29 77.0 °F /  25 °C 66.5 °F /  19.2 °C 29.89in /  1012.1hPa SW 3.0mph /  4.8km/h 4.0mph /  6.4km/h 70% 0.00in /  0mm
21:34 76.7 °F /  24.8 °C 66.2 °F /  19 °C 29.89in /  1012.1hPa SSW 1.0mph /  1.6km/h 4.0mph /  6.4km/h 70% 0.00in /  0mm
21:36 76.6 °F /  24.8 °C 66.5 °F /  19.2 °C 29.89in /  1012.1hPa SSW 2.0mph /  3.2km/h 4.0mph /  6.4km/h 71% 0.00in /  0mm
21:41 76.2 °F /  24.6 °C 66.5 °F /  19.2 °C 29.90in /  1012.4hPa SW 1.0mph /  1.6km/h 2.0mph /  3.2km/h 72% 0.00in /  0mm
21:46 76.0 °F /  24.4 °C 66.3 °F /  19.1 °C 29.90in /  1012.4hPa SW 2.0mph /  3.2km/h 2.0mph /  3.2km/h 72% 0.00in /  0mm
21:51 75.7 °F /  24.3 °C 66.0 °F /  18.9 °C 29.90in /  1012.4hPa WSW 1.0mph /  1.6km/h 4.0mph /  6.4km/h 72% 0.00in /  0mm
21:52 75.7 °F /  24.3 °C 66.0 °F /  18.9 °C 29.90in /  1012.4hPa SW 3.0mph /  4.8km/h 4.0mph /  6.4km/h 72% 0.00in /  0mm
21:56 75.5 °F /  24.2 °C 65.8 °F /  18.8 °C 29.90in /  1012.4hPa SW 2.0mph /  3.2km/h 4.0mph /  6.4km/h 72% 0.00in /  0mm
21:57 75.5 °F /  24.2 °C 65.8 °F /  18.8 °C 29.90in /  1012.4hPa SW 3.0mph /  4.8km/h 4.0mph /  6.4km/h 72% 0.00in /  0mm
21:58 75.6 °F /  24.2 °C 65.9 °F /  18.8 °C 29.90in /  1012.4hPa WSW 2.0mph /  3.2km/h 4.0mph /  6.4km/h 72% 0.00in /  0mm
22:03 75.6 °F /  24.2 °C 65.9 °F /  18.8 °C 29.91in /  1012.8hPa SW 2.0mph /  3.2km/h 3.0mph /  4.8km/h 72% 0.00in /  0mm
22:08 75.6 °F /  24.2 °C 65.5 °F /  18.6 °C 29.91in /  1012.8hPa SW 2.0mph /  3.2km/h 3.0mph /  4.8km/h 71% 0.00in /  0mm
22:13 75.4 °F /  24.1 °C 64.9 °F /  18.3 °C 29.91in /  1012.8hPa WSW 1.0mph /  1.6km/h 3.0mph /  4.8km/h 70% 0.00in /  0mm
22:18 75.2 °F /  24 °C 64.8 °F /  18.2 °C 29.91in /  1012.8hPa WSW 1.0mph /  1.6km/h 2.0mph /  3.2km/h 70% 0.00in /  0mm
22:23 74.9 °F /  23.8 °C 64.9 °F /  18.3 °C 29.92in /  1013.1hPa SW 1.0mph /  1.6km/h 2.0mph /  3.2km/h 71% 0.00in /  0mm
22:24 74.8 °F /  23.8 °C 64.8 °F /  18.2 °C 29.92in /  1013.1hPa SW 1.0mph /  1.6km/h 1.0mph /  1.6km/h 71% 0.00in /  0mm
22:29 74.4 °F /  23.6 °C 64.4 °F /  18 °C 29.92in /  1013.1hPa Calm   1.0mph /  1.6km/h 71% 0.00in /  0mm
22:35 74.2 °F /  23.4 °C 64.6 °F /  18.1 °C 29.92in /  1013.1hPa SW 1.0mph /  1.6km/h 2.0mph /  3.2km/h 72% 0.00in /  0mm
22:36 74.2 °F /  23.4 °C 64.6 °F /  18.1 °C 29.92in /  1013.1hPa WSW 1.0mph /  1.6km/h 2.0mph /  3.2km/h 72% 0.00in /  0mm
22:40 74.3 °F /  23.5 °C 64.3 °F /  17.9 °C 29.92in /  1013.1hPa WSW 1.0mph /  1.6km/h 1.0mph /  1.6km/h 71% 0.00in /  0mm
22:41 74.3 °F /  23.5 °C 64.3 °F /  17.9 °C 29.92in /  1013.1hPa WSW 1.0mph /  1.6km/h 1.0mph /  1.6km/h 71% 0.00in /  0mm
22:45 74.1 °F /  23.4 °C 64.5 °F /  18.1 °C 29.92in /  1013.1hPa Calm   2.0mph /  3.2km/h 72% 0.00in /  0mm
22:50 73.7 °F /  23.2 °C 64.1 °F /  17.8 °C 29.92in /  1013.1hPa Calm   1.0mph /  1.6km/h 72% 0.00in /  0mm
22:51 73.7 °F /  23.2 °C 64.1 °F /  17.8 °C 29.92in /  1013.1hPa Calm   1.0mph /  1.6km/h 72% 0.00in /  0mm
22:52 73.5 °F /  23.1 °C 64.3 °F /  17.9 °C 29.92in /  1013.1hPa Calm     73% 0.00in /  0mm
22:56 73.3 °F /  22.9 °C 64.1 °F /  17.8 °C 29.92in /  1013.1hPa Calm     73% 0.00in /  0mm
22:57 73.2 °F /  22.9 °C 64.0 °F /  17.8 °C 29.92in /  1013.1hPa Calm     73% 0.00in /  0mm
22:58 73.2 °F /  22.9 °C 64.0 °F /  17.8 °C 29.92in /  1013.1hPa Calm     73% 0.00in /  0mm
23:01 73.0 °F /  22.8 °C 64.2 °F /  17.9 °C 29.92in /  1013.1hPa SW 1.0mph /  1.6km/h 1.0mph /  1.6km/h 74% 0.00in /  0mm
23:06 72.6 °F /  22.6 °C 63.8 °F /  17.7 °C 29.92in /  1013.1hPa SW 1.0mph /  1.6km/h 1.0mph /  1.6km/h 74% 0.00in /  0mm
23:11 72.4 °F /  22.4 °C 64.0 °F /  17.8 °C 29.92in /  1013.1hPa Calm     75% 0.00in /  0mm
23:16 72.1 °F /  22.3 °C 64.1 °F /  17.8 °C 29.92in /  1013.1hPa SW 1.0mph /  1.6km/h 1.0mph /  1.6km/h 76% 0.00in /  0mm
23:21 72.0 °F /  22.2 °C 64.0 °F /  17.8 °C 29.92in /  1013.1hPa SW 1.0mph /  1.6km/h 1.0mph /  1.6km/h 76% 0.00in /  0mm
23:26 71.8 °F /  22.1 °C 63.8 °F /  17.7 °C 29.92in /  1013.1hPa SW 1.0mph /  1.6km/h 1.0mph /  1.6km/h 76% 0.00in /  0mm
23:27 71.8 °F /  22.1 °C 63.8 °F /  17.7 °C 29.92in /  1013.1hPa SW 1.0mph /  1.6km/h 1.0mph /  1.6km/h 76% 0.00in /  0mm
23:31 71.6 °F /  22 °C 64.0 °F /  17.8 °C 29.92in /  1013.1hPa SW 1.0mph /  1.6km/h 1.0mph /  1.6km/h 77% 0.00in /  0mm
23:32 71.6 °F /  22 °C 64.0 °F /  17.8 °C 29.92in /  1013.1hPa SW 1.0mph /  1.6km/h 1.0mph /  1.6km/h 77% 0.00in /  0mm
23:33 71.6 °F /  22 °C 64.0 °F /  17.8 °C 29.92in /  1013.1hPa SW 1.0mph /  1.6km/h 1.0mph /  1.6km/h 77% 0.00in /  0mm
23:38 71.3 °F /  21.8 °C 64.1 °F /  17.8 °C 29.92in /  1013.1hPa Calm     78% 0.00in /  0mm
23:40 71.0 °F /  21.7 °C 63.8 °F /  17.7 °C 29.92in /  1013.1hPa Calm     78% 0.00in /  0mm
23:45 70.7 °F /  21.5 °C 63.9 °F /  17.7 °C 29.92in /  1013.1hPa SE 1.0mph /  1.6km/h 1.0mph /  1.6km/h 79% 0.00in /  0mm
23:50 70.5 °F /  21.4 °C 63.7 °F /  17.6 °C 29.92in /  1013.1hPa Calm     79% 0.00in /  0mm
23:55 69.9 °F /  21.1 °C 63.5 °F /  17.5 °C 29.92in /  1013.1hPa Calm     80% 0.00in /  0mm
23:56 69.8 °F /  21 °C 63.4 °F /  17.4 °C 29.92in /  1013.1hPa Calm     80% 0.00in /  0mm
23:58 69.5 °F /  20.8 °C 63.4 °F /  17.4 °C 29.92in /  1013.1hPa Calm     81% 0.00in /  0mm
Compliments of Weather Underground